createdAt,value
2023-04-15T00:01:00.710Z,96904.49
2023-04-15T00:03:30.042Z,96904.58
2023-04-15T00:05:58.791Z,96902.45
2023-04-15T00:08:26.946Z,96912.34
2023-04-15T00:10:55.200Z,96914.00
2023-04-15T00:13:23.762Z,96918.79
2023-04-15T00:15:52.347Z,96920.94
2023-04-15T00:18:29.863Z,96917.45
2023-04-15T00:20:58.963Z,96911.75
2023-04-15T00:23:27.972Z,96905.28
2023-04-15T00:25:56.589Z,96904.98
2023-04-15T00:28:24.918Z,96913.27
2023-04-15T00:30:53.131Z,96908.54
2023-04-15T00:33:21.472Z,96903.36
2023-04-15T00:35:49.603Z,96901.91
2023-04-15T00:38:18.988Z,96903.41
2023-04-15T00:40:47.472Z,96908.65
2023-04-15T00:43:16.603Z,96906.05
2023-04-15T00:45:47.188Z,96917.12
2023-04-15T00:48:16.463Z,96928.25
2023-04-15T00:50:44.680Z,96927.64
2023-04-15T00:53:14.619Z,96918.11
2023-04-15T00:55:47.741Z,96917.56
2023-04-15T00:58:17.397Z,96915.66
2023-04-15T01:00:46.563Z,96910.76
2023-04-15T01:03:15.707Z,96910.59
2023-04-15T01:05:44.113Z,96909.27
2023-04-15T01:08:12.517Z,96905.69
2023-04-15T01:10:40.884Z,96906.59
2023-04-15T01:13:09.272Z,96901.10
2023-04-15T01:15:37.886Z,96894.61
2023-04-15T01:18:07.618Z,96898.26
2023-04-15T01:20:36.521Z,96897.62
2023-04-15T01:23:04.764Z,96897.08
2023-04-15T01:25:34.933Z,96891.66
2023-04-15T01:28:03.505Z,96890.27
2023-04-15T01:30:36.162Z,96891.73
2023-04-15T01:33:04.424Z,96889.75
2023-04-15T01:35:33.069Z,96893.61
2023-04-15T01:38:11.510Z,96900.22
2023-04-15T01:40:41.019Z,96897.47
2023-04-15T01:43:09.440Z,96898.52
2023-04-15T01:45:37.665Z,96899.79
2023-04-15T01:48:06.260Z,96896.59
2023-04-15T01:50:36.922Z,96891.20
2023-04-15T01:53:05.232Z,96888.02
2023-04-15T01:55:33.307Z,96894.33
2023-04-15T01:58:01.582Z,96897.30
2023-04-15T02:00:30.908Z,96900.95
2023-04-15T02:02:59.858Z,96906.02
2023-04-15T02:05:28.944Z,96906.41
2023-04-15T02:07:58.233Z,96905.95
2023-04-15T02:10:26.540Z,96907.25
2023-04-15T02:12:54.655Z,96907.40
2023-04-15T02:15:23.410Z,96905.34
2023-04-15T02:17:52.850Z,96911.63
2023-04-15T02:20:27.503Z,96913.08
2023-04-15T02:22:56.985Z,96911.53
2023-04-15T02:25:25.423Z,96906.64
2023-04-15T02:27:53.730Z,96907.31
2023-04-15T02:30:24.033Z,96912.16
2023-04-15T02:32:52.146Z,96914.95
2023-04-15T02:35:20.307Z,96912.27
2023-04-15T02:37:48.442Z,96912.24
2023-04-15T02:40:17.268Z,96910.09
2023-04-15T02:42:47.048Z,96909.39
2023-04-15T02:45:19.575Z,96908.45
2023-04-15T02:47:47.799Z,96905.46
2023-04-15T02:50:23.767Z,96906.86
2023-04-15T02:52:52.411Z,96904.94
2023-04-15T02:55:21.234Z,96899.36
2023-04-15T02:57:50.012Z,96900.63
2023-04-15T03:00:25.762Z,96900.98
2023-04-15T03:02:59.332Z,96894.73
2023-04-15T03:05:28.768Z,96896.77
2023-04-15T03:07:58.099Z,96894.61
2023-04-15T03:10:26.256Z,96897.38
2023-04-15T03:12:54.574Z,96899.70
2023-04-15T03:15:23.182Z,96900.73
2023-04-15T03:17:59.437Z,96897.90
2023-04-15T03:20:27.738Z,96903.94
2023-04-15T03:22:55.930Z,96903.77
2023-04-15T03:25:24.786Z,96905.02
2023-04-15T03:27:53.091Z,96907.50
2023-04-15T03:30:21.601Z,96910.58
2023-04-15T03:32:50.154Z,96912.77
2023-04-15T03:35:18.421Z,96913.05
2023-04-15T03:37:46.634Z,96920.01
2023-04-15T03:40:15.137Z,96919.15
2023-04-15T03:42:43.404Z,96921.70
2023-04-15T03:45:11.952Z,96927.53
2023-04-15T03:47:40.202Z,96928.64
2023-04-15T03:50:09.098Z,96928.79
2023-04-15T03:52:37.288Z,96930.42
2023-04-15T03:55:05.802Z,96928.52
2023-04-15T03:57:38.151Z,96931.14
2023-04-15T04:00:07.440Z,96939.09
2023-04-15T04:02:42.854Z,96942.80
2023-04-15T04:05:11.362Z,96945.67
2023-04-15T04:07:39.549Z,96947.20
2023-04-15T04:10:08.528Z,96949.98
2023-04-15T04:12:36.726Z,96954.91
2023-04-15T04:15:05.733Z,96952.84
2023-04-15T04:17:34.082Z,96955.16
2023-04-15T04:20:02.314Z,96954.74
2023-04-15T04:22:30.746Z,96959.99
2023-04-15T04:25:00.162Z,96960.20
2023-04-15T04:27:34.360Z,96961.04
2023-04-15T04:30:02.604Z,96962.41
2023-04-15T04:32:30.892Z,96959.76
2023-04-15T04:34:59.307Z,96964.27
2023-04-15T04:37:27.390Z,96969.27
2023-04-15T04:39:55.608Z,96968.83
2023-04-15T04:42:23.817Z,96972.09
2023-04-15T04:44:52.027Z,96975.30
2023-04-15T04:47:20.830Z,96976.73
2023-04-15T04:49:49.035Z,96977.95
2023-04-15T04:52:17.324Z,96981.78
2023-04-15T04:54:45.588Z,96988.59
2023-04-15T04:57:13.932Z,96988.05
2023-04-15T04:59:42.108Z,96986.39
2023-04-15T05:02:10.307Z,96987.36
2023-04-15T05:04:38.640Z,96988.23
2023-04-15T05:07:07.101Z,96986.54
2023-04-15T05:09:36.909Z,96985.30
2023-04-15T05:12:05.588Z,96987.20
2023-04-15T05:14:33.902Z,96989.02
2023-04-15T05:17:02.009Z,96990.78
2023-04-15T05:19:30.575Z,96990.04
2023-04-15T05:21:58.945Z,96991.73
2023-04-15T05:24:27.388Z,96992.80
2023-04-15T05:26:56.305Z,96993.65
2023-04-15T05:29:24.588Z,97003.19
2023-04-15T05:31:52.901Z,97007.85
2023-04-15T05:34:21.032Z,97004.73
2023-04-15T05:36:49.148Z,97006.13
2023-04-15T05:39:17.372Z,97012.54
2023-04-15T05:41:45.832Z,97011.16
2023-04-15T05:44:13.995Z,97013.31
2023-04-15T05:46:42.541Z,97013.55
2023-04-15T05:49:10.806Z,97008.73
2023-04-15T05:51:39.010Z,97011.70
2023-04-15T05:54:07.365Z,97013.09
2023-04-15T05:56:35.558Z,97014.61
2023-04-15T05:59:04.025Z,97013.14
2023-04-15T06:01:33.671Z,97022.22
2023-04-15T06:04:02.018Z,97030.61
2023-04-15T06:06:30.989Z,97039.30
2023-04-15T06:08:59.905Z,97043.73
2023-04-15T06:11:28.462Z,97047.33
2023-04-15T06:13:56.730Z,97042.91
2023-04-15T06:16:24.986Z,97044.36
2023-04-15T06:18:53.187Z,97039.02
2023-04-15T06:21:21.517Z,97035.42
2023-04-15T06:23:49.710Z,97029.70
2023-04-15T06:26:17.912Z,97027.35
2023-04-15T06:28:45.999Z,97036.34
2023-04-15T06:31:14.820Z,97039.70
2023-04-15T06:33:43.068Z,97038.48
2023-04-15T06:36:11.207Z,97038.55
2023-04-15T06:38:39.369Z,97041.42
2023-04-15T06:41:08.017Z,97048.64
2023-04-15T06:43:36.445Z,97046.02
2023-04-15T06:46:04.777Z,97049.02
2023-04-15T06:48:33.176Z,97053.45
2023-04-15T06:51:01.835Z,97054.44
2023-04-15T06:53:30.059Z,97050.72
2023-04-15T06:55:58.226Z,97060.50
2023-04-15T06:58:26.643Z,97067.61
2023-04-15T07:00:54.802Z,97067.70
2023-04-15T07:03:23.506Z,97070.11
2023-04-15T07:05:51.855Z,97080.79
2023-04-15T07:08:20.672Z,97091.00
2023-04-15T07:10:48.898Z,97088.40
2023-04-15T07:13:17.531Z,97089.16
2023-04-15T07:15:45.984Z,97085.66
2023-04-15T07:18:14.153Z,97083.92
2023-04-15T07:20:43.675Z,97077.79
2023-04-15T07:23:12.049Z,97069.85
2023-04-15T07:25:40.409Z,97073.83
2023-04-15T07:28:08.590Z,97077.52
2023-04-15T07:30:36.864Z,97078.55
2023-04-15T07:33:05.056Z,97074.80
2023-04-15T07:35:33.410Z,97076.59
2023-04-15T07:38:01.808Z,97075.59
2023-04-15T07:40:29.918Z,97083.94
2023-04-15T07:42:58.739Z,97084.38
2023-04-15T07:45:27.533Z,97084.48
2023-04-15T07:48:01.059Z,97078.25
2023-04-15T07:50:29.183Z,97079.21
2023-04-15T07:52:57.825Z,97076.73
2023-04-15T07:55:28.155Z,97075.02
2023-04-15T07:57:57.464Z,97073.27
2023-04-15T08:00:26.867Z,97075.83
2023-04-15T08:02:57.471Z,97075.52
2023-04-15T08:05:26.000Z,97076.28
2023-04-15T08:07:54.147Z,97079.19
2023-04-15T08:10:22.612Z,97076.73
2023-04-15T08:12:54.428Z,97078.77
2023-04-15T08:15:28.397Z,97078.98
2023-04-15T08:18:01.040Z,97078.42
2023-04-15T08:20:29.194Z,97075.36
2023-04-15T08:22:57.358Z,97074.95
2023-04-15T08:25:26.032Z,97074.27
2023-04-15T08:27:57.609Z,97076.33
2023-04-15T08:30:25.990Z,97071.66
2023-04-15T08:32:54.128Z,97068.95
2023-04-15T08:35:22.299Z,97068.04
2023-04-15T08:37:50.577Z,97060.98
2023-04-15T08:40:18.863Z,97059.82
2023-04-15T08:42:49.425Z,97060.45
2023-04-15T08:45:20.147Z,97060.58
2023-04-15T08:47:52.925Z,97062.45
2023-04-15T08:50:22.107Z,97065.06
2023-04-15T08:52:50.422Z,97064.31
2023-04-15T08:55:18.878Z,97059.55
2023-04-15T08:57:47.153Z,97054.41
2023-04-15T09:00:15.960Z,97049.38
2023-04-15T09:02:44.512Z,97053.21
2023-04-15T09:05:13.114Z,97057.42
2023-04-15T09:07:41.403Z,97056.60
2023-04-15T09:10:14.338Z,97047.88
2023-04-15T09:12:42.443Z,97047.21
2023-04-15T09:15:14.712Z,97045.23
2023-04-15T09:17:46.739Z,97045.83
2023-04-15T09:20:18.752Z,97050.02
2023-04-15T09:22:48.720Z,97053.32
2023-04-15T09:25:22.528Z,97047.41
2023-04-15T09:27:51.060Z,97044.55
2023-04-15T09:30:19.491Z,97045.54
2023-04-15T09:32:52.042Z,97040.83
2023-04-15T09:35:25.256Z,97039.47
2023-04-15T09:37:54.677Z,97035.46
2023-04-15T09:40:34.837Z,97035.07
2023-04-15T09:43:05.361Z,97033.19
2023-04-15T09:45:34.744Z,97027.31
2023-04-15T09:48:35.128Z,97024.02
2023-04-15T09:51:03.363Z,97023.15
2023-04-15T09:53:36.704Z,97016.77
2023-04-15T09:56:07.986Z,97015.02
2023-04-15T09:58:38.910Z,97017.40
2023-04-15T10:01:09.190Z,97015.27
2023-04-15T10:03:46.664Z,97016.48
2023-04-15T10:06:15.248Z,97015.66
2023-04-15T10:08:43.633Z,97013.31
2023-04-15T10:11:12.857Z,97015.27
2023-04-15T10:13:41.870Z,97014.11
2023-04-15T10:16:16.879Z,97010.69
